createdAt,value
2022-10-01T00:00:01.983Z,97.76
2022-10-01T00:01:32.165Z,97.84
2022-10-01T00:02:37.225Z,97.81
2022-10-01T00:03:39.552Z,97.94
2022-10-01T00:04:41.251Z,98.11
2022-10-01T00:05:43.318Z,98.29
2022-10-01T00:06:45.310Z,98.52
2022-10-01T00:07:48.008Z,98.56
2022-10-01T00:08:50.872Z,98.74
2022-10-01T00:09:52.620Z,98.65
2022-10-01T00:10:54.361Z,98.50
2022-10-01T00:11:56.190Z,98.69
2022-10-01T00:12:59.062Z,98.70
2022-10-01T00:14:04.124Z,98.62
2022-10-01T00:15:12.883Z,98.68
2022-10-01T00:16:18.623Z,98.94
2022-10-01T00:17:20.365Z,98.92
2022-10-01T00:18:22.192Z,98.99
2022-10-01T00:19:23.967Z,99.03
2022-10-01T00:20:25.714Z,99.08
2022-10-01T00:21:31.999Z,99.09
2022-10-01T00:22:37.488Z,99.19
2022-10-01T00:23:39.728Z,99.30
2022-10-01T00:24:41.562Z,99.58
2022-10-01T00:25:43.801Z,99.67
2022-10-01T00:26:45.799Z,99.81
2022-10-01T00:27:47.632Z,100.00
2022-10-01T00:28:55.684Z,100.00
2022-10-01T00:29:57.783Z,100.00
2022-10-01T00:30:59.888Z,100.00
2022-10-01T00:32:02.194Z,100.00
2022-10-01T00:33:04.056Z,100.00
2022-10-01T00:34:06.542Z,100.00
2022-10-01T00:35:12.496Z,100.00
2022-10-01T00:36:14.393Z,100.00
2022-10-01T00:37:17.836Z,100.00
2022-10-01T00:38:19.546Z,100.00
2022-10-01T00:39:21.561Z,100.00
2022-10-01T00:40:24.014Z,100.00
2022-10-01T00:41:27.142Z,100.00
2022-10-01T00:42:28.976Z,100.00
2022-10-01T00:43:34.707Z,100.00
2022-10-01T00:44:37.353Z,100.00
2022-10-01T00:45:39.607Z,100.00
2022-10-01T00:46:45.002Z,100.00
2022-10-01T00:47:58.047Z,100.00
2022-10-01T00:49:01.414Z,100.00
2022-10-01T00:50:08.536Z,100.00
2022-10-01T00:51:11.641Z,100.00
2022-10-01T00:52:21.649Z,100.00
2022-10-01T00:53:25.644Z,100.00
2022-10-01T00:54:37.727Z,100.00
2022-10-01T00:55:48.494Z,100.00
2022-10-01T00:56:56.454Z,100.00
2022-10-01T00:57:58.946Z,100.00
2022-10-01T00:59:02.196Z,100.00
2022-10-01T01:00:07.631Z,100.00
2022-10-01T01:01:09.526Z,100.00
2022-10-01T01:02:12.469Z,100.00
2022-10-01T01:03:15.594Z,100.00
2022-10-01T01:04:17.390Z,100.00
2022-10-01T01:05:20.164Z,100.00
2022-10-01T01:06:21.869Z,100.00
2022-10-01T01:07:23.906Z,100.00
2022-10-01T01:08:25.792Z,100.00
2022-10-01T01:09:35.971Z,100.00
2022-10-01T01:10:50.221Z,100.00
2022-10-01T01:12:25.018Z,100.00
2022-10-01T01:13:33.274Z,100.00
2022-10-01T01:15:07.634Z,100.00
2022-10-01T01:16:31.556Z,100.00
2022-10-01T01:18:02.664Z,100.00
2022-10-01T01:19:37.884Z,100.00
2022-10-01T01:21:02.713Z,100.00
2022-10-01T01:22:11.793Z,100.00
2022-10-01T01:23:16.242Z,100.00
2022-10-01T01:24:56.180Z,100.00
2022-10-01T01:26:16.853Z,100.00
2022-10-01T01:27:31.498Z,100.00
2022-10-01T01:28:44.642Z,100.00
2022-10-01T01:30:04.386Z,100.00
2022-10-01T01:31:17.914Z,100.00
2022-10-01T01:33:04.738Z,100.00
2022-10-01T01:34:14.967Z,100.00
2022-10-01T01:35:27.277Z,100.00
2022-10-01T01:36:38.052Z,100.00
2022-10-01T01:37:47.404Z,100.00
2022-10-01T01:38:59.154Z,100.00
2022-10-01T01:40:05.196Z,100.00
2022-10-01T01:41:10.931Z,100.00
2022-10-01T01:42:24.146Z,100.00
2022-10-01T01:43:36.636Z,100.00
2022-10-01T01:44:44.079Z,100.00
2022-10-01T01:45:51.137Z,100.00
2022-10-01T01:46:58.718Z,100.00
2022-10-01T01:48:02.993Z,100.00
2022-10-01T01:49:05.496Z,100.00
2022-10-01T01:50:08.242Z,100.00
2022-10-01T01:51:33.017Z,100.00
2022-10-01T01:52:35.600Z,100.00
2022-10-01T01:53:38.408Z,100.00
2022-10-01T01:54:41.003Z,100.00
2022-10-01T01:55:49.321Z,100.00
2022-10-01T01:56:52.988Z,100.00
2022-10-01T01:57:57.121Z,100.00
2022-10-01T01:59:00.591Z,100.00
2022-10-01T02:00:02.547Z,100.00
2022-10-01T02:01:40.097Z,100.00
2022-10-01T02:02:50.312Z,100.00
2022-10-01T02:03:52.269Z,100.00
2022-10-01T02:05:03.512Z,100.00
2022-10-01T02:06:28.665Z,100.00
2022-10-01T02:07:48.785Z,100.00
2022-10-01T02:09:15.578Z,100.00
2022-10-01T02:10:56.883Z,100.00
2022-10-01T02:12:20.227Z,100.00
2022-10-01T02:13:39.063Z,100.00
2022-10-01T02:14:54.485Z,100.00
2022-10-01T02:16:09.359Z,100.00
2022-10-01T02:17:32.390Z,100.00
2022-10-01T02:18:48.925Z,100.00
2022-10-01T02:20:02.280Z,100.00
2022-10-01T02:21:10.358Z,100.00
2022-10-01T02:22:20.301Z,100.00
2022-10-01T02:23:40.104Z,100.00
2022-10-01T02:24:50.831Z,100.00
2022-10-01T02:25:59.789Z,100.00
2022-10-01T02:27:08.372Z,100.00
2022-10-01T02:28:16.473Z,100.00
2022-10-01T02:29:23.839Z,100.00
2022-10-01T02:30:25.789Z,100.00
2022-10-01T02:31:30.559Z,100.00
2022-10-01T02:32:35.550Z,100.00
2022-10-01T02:33:41.369Z,100.00
2022-10-01T02:34:47.446Z,100.00
2022-10-01T02:35:53.649Z,100.00
2022-10-01T02:36:59.527Z,100.00
2022-10-01T02:38:06.260Z,100.00
2022-10-01T02:39:14.252Z,100.00
2022-10-01T02:40:22.374Z,100.00
2022-10-01T02:41:31.891Z,100.00
2022-10-01T02:42:37.245Z,100.00
2022-10-01T02:44:04.977Z,100.00
2022-10-01T02:45:08.851Z,100.00
2022-10-01T02:46:28.453Z,100.00
2022-10-01T02:47:36.888Z,100.00
2022-10-01T02:48:38.795Z,100.00
2022-10-01T02:49:41.630Z,100.00
2022-10-01T02:50:53.088Z,100.00
2022-10-01T02:52:06.989Z,100.00
2022-10-01T02:53:19.510Z,100.00
2022-10-01T02:54:35.587Z,100.00
2022-10-01T02:55:41.517Z,100.00
2022-10-01T02:57:02.547Z,100.00
2022-10-01T02:58:05.097Z,100.00
2022-10-01T02:59:08.327Z,100.00
2022-10-01T03:00:13.595Z,100.00
2022-10-01T03:01:15.463Z,100.00
2022-10-01T03:02:19.253Z,100.00
2022-10-01T03:03:21.210Z,100.00
2022-10-01T03:04:22.952Z,100.00
2022-10-01T03:05:24.891Z,100.00
2022-10-01T03:06:27.328Z,100.00
2022-10-01T03:07:32.238Z,100.00
2022-10-01T03:08:34.054Z,100.00
2022-10-01T03:09:36.853Z,100.00
2022-10-01T03:10:41.447Z,100.00
2022-10-01T03:11:45.185Z,100.00
2022-10-01T03:12:47.167Z,100.00
2022-10-01T03:13:48.959Z,100.00
2022-10-01T03:14:51.163Z,100.00
2022-10-01T03:15:52.927Z,100.00
2022-10-01T03:16:55.481Z,100.00
2022-10-01T03:17:57.268Z,100.00
2022-10-01T03:18:59.236Z,100.00
2022-10-01T03:20:01.227Z,100.00
2022-10-01T03:21:03.127Z,100.00
2022-10-01T03:22:05.219Z,100.00
2022-10-01T03:23:06.945Z,100.00
2022-10-01T03:24:09.762Z,100.00
2022-10-01T03:25:11.395Z,100.00
2022-10-01T03:26:13.057Z,100.00
2022-10-01T03:27:14.772Z,100.00
2022-10-01T03:28:16.759Z,100.00
2022-10-01T03:29:18.605Z,100.00
2022-10-01T03:30:20.424Z,100.00
2022-10-01T03:31:22.176Z,100.00
2022-10-01T03:32:23.917Z,100.00
2022-10-01T03:33:25.585Z,100.00
2022-10-01T03:34:27.612Z,100.00
2022-10-01T03:35:29.482Z,100.00
2022-10-01T03:36:31.142Z,100.00
2022-10-01T03:37:32.817Z,100.00
2022-10-01T03:38:34.489Z,100.00
2022-10-01T03:39:36.518Z,100.00
2022-10-01T03:40:39.059Z,100.00
2022-10-01T03:41:40.706Z,100.00
2022-10-01T03:42:42.326Z,100.00
2022-10-01T03:43:43.984Z,100.00
2022-10-01T03:44:45.636Z,100.00
2022-10-01T03:45:47.836Z,100.00
2022-10-01T03:46:49.554Z,100.00
2022-10-01T03:47:53.223Z,100.00
2022-10-01T03:48:57.305Z,100.00
2022-10-01T03:49:59.055Z,100.00
2022-10-01T03:51:01.115Z,100.00
2022-10-01T03:52:04.186Z,100.00
2022-10-01T03:53:06.624Z,100.00
2022-10-01T03:54:09.470Z,100.00
2022-10-01T03:55:11.178Z,100.00
2022-10-01T03:56:13.769Z,100.00
2022-10-01T03:57:15.638Z,100.00
2022-10-01T03:58:18.928Z,100.00
2022-10-01T03:59:21.215Z,100.00
2022-10-01T04:00:22.897Z,100.00
2022-10-01T04:01:25.980Z,100.00
2022-10-01T04:02:27.880Z,100.00
2022-10-01T04:03:30.779Z,100.00
2022-10-01T04:04:32.430Z,100.00
2022-10-01T04:05:34.170Z,100.00
2022-10-01T04:06:36.141Z,100.00
2022-10-01T04:07:38.026Z,100.00
2022-10-01T04:08:39.850Z,100.00
2022-10-01T04:09:41.546Z,100.00
2022-10-01T04:10:43.260Z,100.00
2022-10-01T04:11:44.923Z,100.00
2022-10-01T04:12:46.613Z,100.00
2022-10-01T04:13:48.520Z,100.00
2022-10-01T04:14:50.170Z,100.00
2022-10-01T04:15:52.066Z,100.00
2022-10-01T04:16:53.789Z,100.00
2022-10-01T04:17:55.540Z,100.00
2022-10-01T04:18:57.194Z,100.00
2022-10-01T04:20:00.245Z,100.00
2022-10-01T04:21:02.052Z,100.00
2022-10-01T04:22:03.835Z,100.00
2022-10-01T04:23:05.758Z,100.00
2022-10-01T04:24:07.650Z,100.00
2022-10-01T04:25:13.681Z,100.00
2022-10-01T04:26:15.386Z,100.00
2022-10-01T04:27:17.056Z,100.00
2022-10-01T04:28:19.060Z,100.00
2022-10-01T04:29:20.765Z,100.00
2022-10-01T04:30:23.410Z,100.00
2022-10-01T04:31:25.267Z,100.00
2022-10-01T04:32:27.220Z,100.00
2022-10-01T04:33:28.854Z,100.00
2022-10-01T04:34:49.247Z,100.00
2022-10-01T04:35:50.891Z,100.00
2022-10-01T04:36:52.594Z,100.00
2022-10-01T04:38:02.019Z,100.00
2022-10-01T04:39:03.960Z,100.00
2022-10-01T04:40:06.475Z,100.00
2022-10-01T04:41:09.327Z,100.00
2022-10-01T04:42:13.074Z,100.00
2022-10-01T04:43:14.773Z,100.00
2022-10-01T04:44:16.443Z,100.00
2022-10-01T04:45:18.340Z,100.00
2022-10-01T04:46:20.260Z,100.00
2022-10-01T04:47:21.940Z,100.00
2022-10-01T04:48:24.195Z,100.00
2022-10-01T04:49:25.951Z,100.00
2022-10-01T04:50:28.377Z,100.00
2022-10-01T04:51:30.037Z,100.00
2022-10-01T04:52:31.761Z,100.00
2022-10-01T04:53:33.491Z,100.00
2022-10-01T04:54:35.162Z,100.00
2022-10-01T04:55:36.968Z,100.00
2022-10-01T04:56:38.672Z,100.00
2022-10-01T04:57:40.475Z,100.00
2022-10-01T04:58:42.348Z,100.00
2022-10-01T04:59:44.027Z,100.00
2022-10-01T05:00:45.801Z,100.00
2022-10-01T05:01:47.562Z,100.00
2022-10-01T05:02:50.736Z,100.00
2022-10-01T05:03:52.750Z,100.00
2022-10-01T05:04:54.813Z,100.00
2022-10-01T05:05:56.475Z,100.00
2022-10-01T05:06:58.115Z,100.00
2022-10-01T05:07:59.858Z,100.00
2022-10-01T05:09:01.680Z,100.00
2022-10-01T05:10:03.805Z,100.00
2022-10-01T05:11:05.689Z,100.00
2022-10-01T05:12:08.186Z,100.00
2022-10-01T05:13:11.119Z,100.00
2022-10-01T05:14:15.337Z,100.00
2022-10-01T05:15:18.411Z,100.00
2022-10-01T05:16:20.184Z,100.00
2022-10-01T05:17:22.887Z,100.00
2022-10-01T05:18:24.776Z,100.00
2022-10-01T05:19:29.355Z,100.00
2022-10-01T05:20:31.055Z,100.00
2022-10-01T05:21:32.865Z,100.00
2022-10-01T05:22:34.798Z,100.00
2022-10-01T05:23:36.453Z,100.00
2022-10-01T05:24:38.861Z,100.00
2022-10-01T05:25:40.665Z,100.00
2022-10-01T05:26:42.393Z,100.00
2022-10-01T05:27:44.917Z,100.00
2022-10-01T05:28:46.733Z,100.00
2022-10-01T05:29:48.416Z,100.00
2022-10-01T05:30:53.850Z,100.00
2022-10-01T05:31:55.637Z,100.00
2022-10-01T05:33:00.720Z,100.00
2022-10-01T05:34:02.417Z,100.00
2022-10-01T05:35:06.459Z,100.00
2022-10-01T05:36:08.184Z,100.00
2022-10-01T05:37:11.949Z,100.00
2022-10-01T05:38:13.625Z,100.00
2022-10-01T05:39:15.281Z,100.00
2022-10-01T05:40:17.117Z,100.00
2022-10-01T05:41:19.250Z,100.00
2022-10-01T05:42:21.287Z,100.00
2022-10-01T05:43:23.043Z,100.00
2022-10-01T05:44:25.772Z,100.00
2022-10-01T05:45:28.820Z,100.00
2022-10-01T05:46:32.790Z,100.00
2022-10-01T05:47:34.606Z,100.00
2022-10-01T05:48:37.976Z,100.00
2022-10-01T05:49:42.956Z,100.00
2022-10-01T05:50:45.014Z,100.00
2022-10-01T05:51:47.185Z,100.00
2022-10-01T05:52:52.077Z,100.00
2022-10-01T05:53:54.663Z,100.00
2022-10-01T05:54:56.345Z,100.00
2022-10-01T05:56:02.416Z,100.00
2022-10-01T05:57:05.191Z,100.00
2022-10-01T05:58:10.571Z,100.00
2022-10-01T05:59:12.330Z,100.00
2022-10-01T06:00:14.765Z,100.00
2022-10-01T06:01:16.754Z,100.00
2022-10-01T06:02:18.596Z,100.00
2022-10-01T06:03:20.444Z,100.00
2022-10-01T06:04:22.335Z,100.00
2022-10-01T06:05:24.833Z,100.00
2022-10-01T06:06:27.657Z,100.00
2022-10-01T06:07:32.039Z,100.00
2022-10-01T06:08:35.053Z,100.00
2022-10-01T06:09:36.712Z,100.00
2022-10-01T06:10:38.848Z,100.00
2022-10-01T06:11:40.672Z,100.00
2022-10-01T06:12:43.313Z,100.00
2022-10-01T06:13:45.613Z,100.00
2022-10-01T06:14:47.561Z,100.00
2022-10-01T06:15:53.011Z,100.00
2022-10-01T06:16:55.031Z,100.00
2022-10-01T06:17:56.976Z,100.00
2022-10-01T06:18:58.721Z,100.00
2022-10-01T06:20:00.941Z,100.00
2022-10-01T06:21:03.302Z,100.00
2022-10-01T06:22:05.051Z,100.00
2022-10-01T06:23:12.207Z,100.00
2022-10-01T06:24:14.093Z,100.00
2022-10-01T06:25:15.942Z,100.00
2022-10-01T06:26:19.392Z,100.00
2022-10-01T06:27:27.077Z,100.00
2022-10-01T06:28:29.138Z,100.00
2022-10-01T06:29:30.819Z,100.00
2022-10-01T06:30:36.391Z,100.00
2022-10-01T06:31:38.609Z,100.00
2022-10-01T06:32:43.237Z,100.00
2022-10-01T06:33:45.193Z,100.00
2022-10-01T06:34:47.018Z,100.00
2022-10-01T06:35:51.852Z,100.00
2022-10-01T06:36:53.505Z,100.00
2022-10-01T06:37:55.349Z,100.00
2022-10-01T06:38:57.811Z,100.00
2022-10-01T06:40:00.026Z,100.00
2022-10-01T06:41:03.813Z,100.00
2022-10-01T06:42:05.667Z,100.00
2022-10-01T06:43:08.416Z,100.00
2022-10-01T06:44:10.821Z,100.00
2022-10-01T06:45:12.719Z,100.00
2022-10-01T06:46:14.524Z,100.00
2022-10-01T06:47:16.506Z,100.00
2022-10-01T06:48:20.206Z,100.00
2022-10-01T06:49:22.777Z,100.00
2022-10-01T06:50:25.990Z,100.00
2022-10-01T06:51:46.209Z,100.00
2022-10-01T06:52:50.856Z,100.00
2022-10-01T06:53:52.716Z,100.00
2022-10-01T06:54:54.479Z,100.00
2022-10-01T06:55:56.470Z,100.00
2022-10-01T06:56:58.266Z,100.00
2022-10-01T06:58:01.364Z,100.00
2022-10-01T06:59:03.962Z,100.00
2022-10-01T07:00:06.849Z,100.00
2022-10-01T07:01:09.892Z,100.00
2022-10-01T07:02:30.195Z,100.00
2022-10-01T07:03:32.225Z,100.00
2022-10-01T07:04:34.083Z,100.00
2022-10-01T07:05:35.779Z,100.00
2022-10-01T07:06:37.411Z,100.00
2022-10-01T07:07:39.630Z,100.00
2022-10-01T07:08:41.596Z,100.00
2022-10-01T07:09:43.505Z,100.00
2022-10-01T07:10:45.667Z,100.00
2022-10-01T07:11:47.499Z,100.00
2022-10-01T07:12:50.093Z,100.00
2022-10-01T07:13:54.481Z,100.00
2022-10-01T07:14:56.948Z,100.00
2022-10-01T07:15:58.687Z,100.00
2022-10-01T07:17:00.711Z,100.00
2022-10-01T07:18:02.792Z,100.00
2022-10-01T07:19:04.576Z,100.00
2022-10-01T07:20:06.683Z,100.00
2022-10-01T07:21:08.539Z,100.00
2022-10-01T07:22:10.508Z,100.00
2022-10-01T07:23:14.534Z,100.00
2022-10-01T07:24:16.491Z,100.00
2022-10-01T07:25:18.348Z,100.00
2022-10-01T07:26:20.261Z,100.00
2022-10-01T07:27:21.917Z,100.00
2022-10-01T07:28:25.639Z,100.00
2022-10-01T07:29:27.880Z,100.00
2022-10-01T07:30:30.042Z,100.00
2022-10-01T07:31:33.121Z,100.00
2022-10-01T07:32:35.442Z,100.00
2022-10-01T07:33:38.153Z,100.00
2022-10-01T07:34:40.362Z,100.00
2022-10-01T07:35:42.330Z,100.00
2022-10-01T07:36:45.472Z,100.00
2022-10-01T07:37:48.408Z,100.00
2022-10-01T07:38:51.267Z,100.00
2022-10-01T07:39:53.863Z,100.00
2022-10-01T07:40:55.557Z,100.00
2022-10-01T07:41:57.776Z,100.00
2022-10-01T07:42:59.470Z,100.00
2022-10-01T07:44:03.399Z,100.00
2022-10-01T07:45:06.690Z,100.00
2022-10-01T07:46:08.551Z,100.00
2022-10-01T07:47:12.367Z,100.00
2022-10-01T07:48:17.285Z,100.00
2022-10-01T07:49:19.122Z,100.00
2022-10-01T07:50:20.929Z,100.00
2022-10-01T07:51:23.546Z,100.00
2022-10-01T07:52:25.278Z,100.00
2022-10-01T07:53:27.610Z,100.00
2022-10-01T07:54:29.348Z,100.00
2022-10-01T07:55:32.834Z,100.00
2022-10-01T07:56:34.529Z,100.00
2022-10-01T07:57:36.516Z,100.00
2022-10-01T07:58:38.151Z,100.00
2022-10-01T07:59:40.981Z,100.00
2022-10-01T08:00:43.510Z,100.00
2022-10-01T08:01:49.697Z,100.00
2022-10-01T08:02:53.942Z,100.00
2022-10-01T08:03:55.712Z,100.00
2022-10-01T08:05:15.773Z,100.00
2022-10-01T08:06:23.325Z,100.00
2022-10-01T08:07:27.289Z,100.00
2022-10-01T08:08:31.131Z,100.00
2022-10-01T08:09:33.062Z,100.00
2022-10-01T08:10:37.427Z,100.00
2022-10-01T08:11:39.087Z,100.00
2022-10-01T08:12:42.817Z,100.00
2022-10-01T08:13:45.833Z,100.00
2022-10-01T08:14:47.930Z,100.00
2022-10-01T08:15:53.304Z,100.00
2022-10-01T08:16:56.284Z,100.00
2022-10-01T08:18:04.098Z,100.00
2022-10-01T08:19:08.027Z,100.00
2022-10-01T08:20:12.883Z,100.00
2022-10-01T08:21:14.517Z,100.00
2022-10-01T08:22:16.388Z,100.00
2022-10-01T08:23:18.041Z,100.00
2022-10-01T08:24:20.218Z,100.00
2022-10-01T08:25:21.900Z,100.00
2022-10-01T08:26:23.559Z,100.00
2022-10-01T08:27:26.500Z,100.00
2022-10-01T08:28:30.173Z,100.00
2022-10-01T08:29:33.902Z,100.00
2022-10-01T08:30:38.485Z,100.00
2022-10-01T08:31:41.125Z,100.00
2022-10-01T08:32:42.830Z,100.00
2022-10-01T08:33:44.781Z,100.00
2022-10-01T08:34:48.016Z,100.00
2022-10-01T08:35:49.943Z,100.00
2022-10-01T08:36:51.964Z,100.00
2022-10-01T08:37:56.581Z,100.00
2022-10-01T08:38:59.124Z,100.00
2022-10-01T08:40:01.054Z,100.00
2022-10-01T08:41:21.281Z,100.00
2022-10-01T08:42:52.541Z,100.00
2022-10-01T08:43:54.991Z,100.00
2022-10-01T08:44:57.745Z,100.00
2022-10-01T08:46:26.131Z,100.00
2022-10-01T08:47:39.639Z,100.00
2022-10-01T08:48:59.395Z,100.00
2022-10-01T08:50:29.897Z,100.00
2022-10-01T08:51:57.617Z,100.00
2022-10-01T08:53:04.832Z,100.00
2022-10-01T08:54:37.522Z,100.00
2022-10-01T08:55:41.621Z,100.00
2022-10-01T08:56:47.595Z,100.00
2022-10-01T08:58:03.582Z,100.00
2022-10-01T08:59:32.887Z,99.63
2022-10-01T09:00:41.838Z,98.89
2022-10-01T09:01:43.555Z,99.27
2022-10-01T09:02:47.825Z,98.28
2022-10-01T09:03:50.611Z,97.55
2022-10-01T09:05:01.225Z,97.20
2022-10-01T09:06:19.462Z,96.76
2022-10-01T09:08:09.545Z,96.43
2022-10-01T09:09:41.323Z,95.92
2022-10-01T09:10:53.183Z,95.77
2022-10-01T09:12:30.408Z,95.71
2022-10-01T09:13:54.420Z,94.52
2022-10-01T09:15:22.421Z,94.28
2022-10-01T09:16:48.589Z,94.14
2022-10-01T09:18:21.955Z,92.07
2022-10-01T09:19:57.621Z,91.30
2022-10-01T09:20:59.336Z,91.47
2022-10-01T09:22:10.986Z,90.96
2022-10-01T09:23:29.737Z,89.78
2022-10-01T09:24:45.531Z,89.59
2022-10-01T09:25:50.422Z,89.09
2022-10-01T09:26:52.063Z,89.46
2022-10-01T09:28:07.444Z,88.97
2022-10-01T09:29:17.371Z,89.31
2022-10-01T09:30:21.885Z,88.38
2022-10-01T09:31:41.060Z,88.44
2022-10-01T09:32:53.878Z,87.83
2022-10-01T09:34:10.963Z,87.31
2022-10-01T09:35:23.571Z,86.26
2022-10-01T09:36:51.808Z,85.93
2022-10-01T09:38:00.212Z,84.37
2022-10-01T09:39:30.426Z,83.43
2022-10-01T09:40:50.108Z,83.24
2022-10-01T09:41:52.126Z,83.96
2022-10-01T09:42:53.872Z,84.42
2022-10-01T09:43:56.852Z,84.07
2022-10-01T09:44:59.076Z,82.22
2022-10-01T09:46:05.241Z,81.27
2022-10-01T09:47:20.599Z,80.88
2022-10-01T09:48:24.886Z,80.76
2022-10-01T09:49:46.120Z,80.87
2022-10-01T09:50:58.960Z,80.64
2022-10-01T09:52:13.886Z,81.41
2022-10-01T09:53:26.328Z,80.70
2022-10-01T09:54:33.700Z,78.90
2022-10-01T09:55:42.967Z,78.27
2022-10-01T09:56:55.082Z,78.97
2022-10-01T09:58:16.434Z,79.47
2022-10-01T09:59:26.978Z,80.08
2022-10-01T10:00:28.754Z,80.61
2022-10-01T10:01:45.205Z,80.14
2022-10-01T10:02:49.874Z,79.18
2022-10-01T10:03:57.330Z,79.02
2022-10-01T10:05:04.286Z,78.92
2022-10-01T10:06:06.652Z,79.01
2022-10-01T10:07:17.696Z,77.67
2022-10-01T10:08:28.322Z,76.51
2022-10-01T10:09:33.055Z,77.93
2022-10-01T10:10:39.515Z,78.13
2022-10-01T10:11:42.987Z,77.60
2022-10-01T10:12:45.941Z,78.33
2022-10-01T10:13:54.306Z,78.07
2022-10-01T10:14:59.022Z,77.18
2022-10-01T10:16:20.343Z,76.38
2022-10-01T10:17:23.119Z,77.80
2022-10-01T10:18:35.575Z,75.41
2022-10-01T10:19:37.696Z,74.90
2022-10-01T10:20:50.905Z,75.91
2022-10-01T10:22:10.105Z,75.95
2022-10-01T10:23:16.835Z,76.65
2022-10-01T10:24:33.836Z,76.39
2022-10-01T10:25:35.566Z,74.90
2022-10-01T10:26:41.106Z,75.53
2022-10-01T10:27:55.810Z,74.54
2022-10-01T10:28:59.793Z,73.67
2022-10-01T10:30:13.569Z,73.38
2022-10-01T10:31:26.014Z,73.68
2022-10-01T10:32:29.213Z,72.82
2022-10-01T10:33:31.078Z,73.35
2022-10-01T10:34:41.066Z,73.69
2022-10-01T10:35:43.429Z,73.78
2022-10-01T10:36:47.010Z,75.58
2022-10-01T10:37:53.575Z,74.35
2022-10-01T10:38:58.445Z,71.30
2022-10-01T10:40:00.691Z,71.03
2022-10-01T10:41:03.915Z,70.54
2022-10-01T10:42:07.535Z,70.68
2022-10-01T10:43:22.880Z,70.95
2022-10-01T10:44:31.964Z,70.82
2022-10-01T10:45:42.493Z,69.84
2022-10-01T10:46:46.451Z,68.52
2022-10-01T10:47:52.726Z,67.60
2022-10-01T10:49:04.739Z,68.39
2022-10-01T10:50:27.136Z,68.44
2022-10-01T10:51:28.937Z,68.16
2022-10-01T10:52:36.315Z,68.68
2022-10-01T10:53:46.070Z,69.07
2022-10-01T10:54:50.767Z,68.36
2022-10-01T10:55:56.080Z,67.62
2022-10-01T10:57:02.746Z,67.52
2022-10-01T10:58:16.650Z,67.94
2022-10-01T10:59:18.513Z,66.22
2022-10-01T11:00:24.144Z,64.77
2022-10-01T11:01:28.973Z,65.25
2022-10-01T11:02:33.403Z,64.64
2022-10-01T11:03:38.497Z,64.31
2022-10-01T11:04:44.222Z,64.97
2022-10-01T11:05:45.916Z,64.76
2022-10-01T11:06:55.933Z,64.70
2022-10-01T11:08:02.925Z,64.90
2022-10-01T11:09:11.007Z,64.68
2022-10-01T11:10:32.712Z,63.49
2022-10-01T11:11:51.171Z,62.82
2022-10-01T11:13:26.875Z,63.02
2022-10-01T11:15:02.850Z,63.55
2022-10-01T11:16:40.537Z,63.49
2022-10-01T11:18:17.843Z,63.45
2022-10-01T11:19:22.033Z,64.59
2022-10-01T11:20:36.696Z,63.23
2022-10-01T11:22:13.316Z,62.74
2022-10-01T11:23:39.427Z,63.49
2022-10-01T11:25:11.657Z,62.97
2022-10-01T11:26:21.882Z,61.08
2022-10-01T11:27:36.156Z,61.37
2022-10-01T11:28:54.588Z,61.09
2022-10-01T11:30:09.536Z,61.44
2022-10-01T11:31:35.519Z,61.16
2022-10-01T11:33:23.176Z,59.39
2022-10-01T11:34:28.180Z,58.97
2022-10-01T11:35:55.421Z,59.15
2022-10-01T11:37:10.748Z,59.45
2022-10-01T11:38:37.899Z,58.44
2022-10-01T11:39:45.087Z,57.99
2022-10-01T11:40:55.977Z,57.25
2022-10-01T11:42:24.675Z,57.47
2022-10-01T11:43:38.808Z,57.05
2022-10-01T11:45:00.707Z,57.96
2022-10-01T11:46:19.253Z,57.44
2022-10-01T11:47:30.400Z,57.96
2022-10-01T11:48:41.326Z,58.55
2022-10-01T11:49:50.129Z,58.67
2022-10-01T11:51:00.222Z,58.27
2022-10-01T11:52:34.253Z,58.54
2022-10-01T11:53:50.358Z,60.63
2022-10-01T11:55:31.897Z,61.55
2022-10-01T11:57:07.432Z,61.73
2022-10-01T11:58:44.218Z,61.79
2022-10-01T12:00:00.058Z,62.46
2022-10-01T12:01:14.232Z,62.87
2022-10-01T12:02:31.571Z,63.89
2022-10-01T12:03:51.088Z,64.28
2022-10-01T12:05:00.039Z,64.38
2022-10-01T12:06:09.373Z,64.14
2022-10-01T12:07:39.979Z,64.14
2022-10-01T12:08:50.031Z,65.08
2022-10-01T12:10:07.488Z,66.02
2022-10-01T12:11:21.013Z,66.54
2022-10-01T12:12:35.216Z,66.55
2022-10-01T12:13:45.584Z,67.47
2022-10-01T12:15:23.008Z,68.08
2022-10-01T12:16:51.007Z,68.33
2022-10-01T12:18:01.323Z,68.40
2022-10-01T12:19:12.103Z,67.66
2022-10-01T12:20:24.968Z,68.10
2022-10-01T12:21:35.032Z,68.29
2022-10-01T12:22:41.286Z,68.85
2022-10-01T12:23:54.535Z,69.28
2022-10-01T12:24:56.215Z,68.82
2022-10-01T12:26:50.180Z,68.84
2022-10-01T12:28:12.492Z,68.41
2022-10-01T12:29:22.826Z,68.82
2022-10-01T12:30:31.977Z,69.60
2022-10-01T12:31:51.431Z,69.93
2022-10-01T12:33:05.527Z,70.48
2022-10-01T12:34:22.536Z,70.40
2022-10-01T12:35:42.301Z,70.65
2022-10-01T12:37:21.938Z,71.32
2022-10-01T12:38:41.183Z,71.01
2022-10-01T12:40:05.827Z,71.50
2022-10-01T12:41:37.558Z,72.12
2022-10-01T12:43:01.938Z,72.82
2022-10-01T12:44:08.378Z,71.94
2022-10-01T12:45:49.746Z,71.74
2022-10-01T12:47:28.027Z,72.10
2022-10-01T12:48:48.547Z,72.38
2022-10-01T12:50:18.036Z,72.78
2022-10-01T12:51:22.469Z,72.88
2022-10-01T12:53:00.504Z,73.44
2022-10-01T12:54:17.008Z,73.93
2022-10-01T12:55:40.736Z,74.43
2022-10-01T12:56:57.524Z,74.91
2022-10-01T12:58:31.305Z,75.24
2022-10-01T12:59:43.388Z,75.57
2022-10-01T13:01:13.150Z,76.09
2022-10-01T13:02:46.214Z,76.86
2022-10-01T13:04:09.932Z,77.29
2022-10-01T13:05:39.123Z,77.46
2022-10-01T13:07:17.337Z,77.80
2022-10-01T13:08:47.931Z,77.90
2022-10-01T13:10:06.101Z,77.27
2022-10-01T13:11:20.772Z,77.12
2022-10-01T13:12:41.003Z,77.21
2022-10-01T13:13:43.504Z,77.87
2022-10-01T13:14:46.995Z,77.90
2022-10-01T13:16:00.249Z,77.53
2022-10-01T13:17:18.627Z,77.02
2022-10-01T13:18:33.032Z,76.93
2022-10-01T13:19:51.184Z,76.87
2022-10-01T13:21:11.424Z,76.94
2022-10-01T13:22:34.724Z,77.32
2022-10-01T13:23:43.861Z,77.40
2022-10-01T13:25:06.427Z,77.56
2022-10-01T13:26:20.016Z,77.69
2022-10-01T13:27:35.145Z,77.40
2022-10-01T13:28:55.768Z,78.11
2022-10-01T13:30:15.861Z,78.45
2022-10-01T13:31:21.118Z,78.81
2022-10-01T13:32:37.326Z,78.80
2022-10-01T13:33:39.053Z,78.92
2022-10-01T13:34:44.102Z,79.28
2022-10-01T13:35:54.614Z,79.13
2022-10-01T13:36:56.260Z,79.20
2022-10-01T13:37:58.645Z,79.27
2022-10-01T13:39:00.765Z,79.48
2022-10-01T13:40:03.568Z,79.81
2022-10-01T13:41:17.824Z,79.93
2022-10-01T13:42:26.094Z,79.83
2022-10-01T13:43:31.672Z,79.96
2022-10-01T13:44:35.879Z,80.04
2022-10-01T13:45:37.396Z,80.19
2022-10-01T13:47:03.306Z,80.43
2022-10-01T13:48:29.245Z,80.65
2022-10-01T13:49:32.187Z,80.79
2022-10-01T13:50:34.488Z,80.83
2022-10-01T13:51:39.261Z,80.38
2022-10-01T13:52:41.161Z,80.43
2022-10-01T13:53:42.833Z,80.78
2022-10-01T13:54:50.125Z,80.82
2022-10-01T13:55:54.267Z,80.70
2022-10-01T13:57:08.519Z,80.54
2022-10-01T13:58:38.744Z,80.53
2022-10-01T13:59:40.697Z,80.57
2022-10-01T14:00:53.589Z,80.81
2022-10-01T14:01:55.467Z,81.27
2022-10-01T14:03:04.998Z,81.66
2022-10-01T14:04:18.636Z,81.91
2022-10-01T14:05:32.837Z,82.18
2022-10-01T14:06:34.543Z,82.16
2022-10-01T14:07:39.962Z,82.26
2022-10-01T14:08:48.987Z,82.27
2022-10-01T14:09:57.496Z,82.61
2022-10-01T14:11:31.499Z,82.51
2022-10-01T14:12:55.509Z,82.87
2022-10-01T14:14:32.328Z,83.23
2022-10-01T14:16:00.275Z,83.78
2022-10-01T14:17:02.742Z,83.90
2022-10-01T14:18:12.325Z,84.08
2022-10-01T14:19:23.794Z,84.14
2022-10-01T14:20:34.178Z,84.20
2022-10-01T14:21:47.543Z,83.98
2022-10-01T14:23:06.523Z,84.15
2022-10-01T14:24:44.961Z,84.21